Terminal Aerodrome Forecast
Issued by NWS

Home | Current Version | Previous Version | Text Only | Print | Product List | Glossary On
Versions: 1 2 3 4 5 6 7 8 9 10 11 12 13 14 15 16 17 18 19 20 21 22 23 24 25 26
000
FTUS45 KREV 301700
TAFTRK
TAF
KTRK 301722Z 3018/3118 VRB03KT P6SM SCT100 BKN180
     FM302200 24010KT P6SM VCTS SCT040CB BKN080 BKN100
     FM310200 VRB03KT P6SM SCT080 BKN140=

USA.gov is the U.S. government's official web portal to all federal, state and local government web resources and services.